createdAt,value
2023-03-02T00:00:47.136Z,6.13
2023-03-02T00:03:50.559Z,7.43
2023-03-02T00:06:58.379Z,5.70
2023-03-02T00:10:01.916Z,6.03
2023-03-02T00:13:08.054Z,6.07
2023-03-02T00:16:11.708Z,4.93
2023-03-02T00:19:15.128Z,6.07
2023-03-02T00:22:19.304Z,5.55
2023-03-02T00:25:22.243Z,5.60
2023-03-02T00:28:25.263Z,6.80
2023-03-02T00:31:28.541Z,5.32
2023-03-02T00:34:34.579Z,5.97
2023-03-02T00:37:38.456Z,5.85
2023-03-02T00:40:49.235Z,6.93
2023-03-02T00:43:52.537Z,5.70
2023-03-02T00:46:55.701Z,6.05
2023-03-02T00:49:59.270Z,6.35
2023-03-02T00:53:02.129Z,6.18
2023-03-02T00:56:06.164Z,8.10
2023-03-02T00:59:34.098Z,6.43
2023-03-02T01:02:52.277Z,6.45
2023-03-02T01:05:56.539Z,6.93
2023-03-02T01:08:59.759Z,6.00
2023-03-02T01:12:03.741Z,7.00
2023-03-02T01:15:08.349Z,6.33
2023-03-02T01:18:12.259Z,6.65
2023-03-02T01:21:16.617Z,6.15
2023-03-02T01:24:19.599Z,6.00
2023-03-02T01:27:22.556Z,5.83
2023-03-02T01:30:25.664Z,6.77
2023-03-02T01:33:29.274Z,6.85
2023-03-02T01:36:32.711Z,6.53
2023-03-02T01:39:36.340Z,5.80
2023-03-02T01:42:47.119Z,5.63
2023-03-02T01:45:59.931Z,8.10
2023-03-02T01:49:23.505Z,6.80
2023-03-02T01:52:35.331Z,6.85
2023-03-02T01:55:39.841Z,6.00
2023-03-02T01:58:46.250Z,6.20
2023-03-02T02:01:55.669Z,7.13
2023-03-02T02:04:58.871Z,6.53
2023-03-02T02:08:02.517Z,7.47
2023-03-02T02:11:06.762Z,6.35
2023-03-02T02:14:10.580Z,6.57
2023-03-02T02:17:17.055Z,5.53
2023-03-02T02:20:20.748Z,7.15
2023-03-02T02:23:27.667Z,6.90
2023-03-02T02:26:45.466Z,5.55
2023-03-02T02:29:51.760Z,6.53
2023-03-02T02:32:56.262Z,6.53
2023-03-02T02:36:06.490Z,5.63
2023-03-02T02:39:20.924Z,6.00
2023-03-02T02:42:29.602Z,5.22
2023-03-02T02:45:32.738Z,6.07
2023-03-02T02:48:35.815Z,6.43
2023-03-02T02:51:39.065Z,5.97
2023-03-02T02:54:44.721Z,5.80
2023-03-02T02:57:49.230Z,6.10
2023-03-02T03:00:54.939Z,5.00
2023-03-02T03:04:02.706Z,5.57
2023-03-02T03:07:06.799Z,4.03
2023-03-02T03:10:28.038Z,5.35
2023-03-02T03:13:31.317Z,4.53
2023-03-02T03:16:36.116Z,6.27
2023-03-02T03:19:45.601Z,4.53
2023-03-02T03:22:49.169Z,4.75
2023-03-02T03:25:52.763Z,5.57
2023-03-02T03:28:57.381Z,3.90
2023-03-02T03:32:02.299Z,6.77
2023-03-02T03:35:08.905Z,5.07
2023-03-02T03:38:12.620Z,4.15
2023-03-02T03:41:16.717Z,4.85
2023-03-02T03:44:20.142Z,4.55
2023-03-02T03:47:24.138Z,4.60
2023-03-02T03:50:28.563Z,4.80
2023-03-02T03:53:32.256Z,5.32
2023-03-02T03:56:39.870Z,4.72
2023-03-02T03:59:42.950Z,4.80
2023-03-02T04:02:46.007Z,5.37
2023-03-02T04:05:50.253Z,4.17
2023-03-02T04:08:54.125Z,4.68
2023-03-02T04:11:57.797Z,5.07
2023-03-02T04:15:02.614Z,5.10
2023-03-02T04:18:05.980Z,5.80
2023-03-02T04:21:10.933Z,4.50
2023-03-02T04:24:15.854Z,4.43
2023-03-02T04:27:20.024Z,5.05
2023-03-02T04:30:25.484Z,4.47
2023-03-02T04:33:29.221Z,6.50
2023-03-02T04:36:35.424Z,5.13
2023-03-02T04:39:40.823Z,5.00
2023-03-02T04:42:44.829Z,3.92
2023-03-02T04:45:48.352Z,4.75
2023-03-02T04:48:52.945Z,5.13
2023-03-02T04:52:01.742Z,4.77
2023-03-02T04:55:05.155Z,5.32
2023-03-02T04:58:08.860Z,4.40
2023-03-02T05:01:12.333Z,4.68
2023-03-02T05:04:16.450Z,5.03
2023-03-02T05:07:19.865Z,4.53
2023-03-02T05:10:23.764Z,5.70
2023-03-02T05:13:27.938Z,5.25
2023-03-02T05:16:34.160Z,5.60
2023-03-02T05:19:37.619Z,5.50
2023-03-02T05:22:40.693Z,5.53
2023-03-02T05:25:43.709Z,5.32
2023-03-02T05:28:47.329Z,4.43
2023-03-02T05:31:51.352Z,4.68
2023-03-02T05:34:54.516Z,4.83
2023-03-02T05:37:57.938Z,6.47
2023-03-02T05:41:01.271Z,4.80
2023-03-02T05:44:06.047Z,5.80
2023-03-02T05:47:09.237Z,5.10
2023-03-02T05:50:12.310Z,5.40
2023-03-02T05:53:16.783Z,5.27
2023-03-02T05:56:21.409Z,5.07
2023-03-02T05:59:24.720Z,4.85
2023-03-02T06:02:27.672Z,5.15
2023-03-02T06:05:30.573Z,5.97
2023-03-02T06:08:33.934Z,5.73
2023-03-02T06:11:36.827Z,5.25
2023-03-02T06:14:40.266Z,5.78
2023-03-02T06:17:43.303Z,5.80
2023-03-02T06:20:46.623Z,5.67
2023-03-02T06:23:49.561Z,4.77
2023-03-02T06:26:55.883Z,5.30
2023-03-02T06:29:58.789Z,5.05
2023-03-02T06:33:02.071Z,6.25
2023-03-02T06:36:05.624Z,9.30
2023-03-02T06:39:15.820Z,10.17
2023-03-02T06:42:26.300Z,8.75
2023-03-02T06:45:30.352Z,6.88
2023-03-02T06:48:34.306Z,5.00
2023-03-02T06:51:38.109Z,6.87
2023-03-02T06:54:41.764Z,5.63
2023-03-02T06:57:45.111Z,5.68
2023-03-02T07:00:51.052Z,5.07
2023-03-02T07:03:54.714Z,5.13
2023-03-02T07:07:01.241Z,4.47
2023-03-02T07:10:07.106Z,4.77
2023-03-02T07:13:14.146Z,4.55
2023-03-02T07:16:17.836Z,4.72
2023-03-02T07:19:21.515Z,5.15
2023-03-02T07:22:25.036Z,5.03
2023-03-02T07:25:32.902Z,5.37
2023-03-02T07:28:42.453Z,5.30
2023-03-02T07:31:45.568Z,4.90
2023-03-02T07:34:49.277Z,4.15
2023-03-02T07:38:08.678Z,4.97
2023-03-02T07:41:12.950Z,5.77
2023-03-02T07:44:17.019Z,4.82
2023-03-02T07:47:20.662Z,4.80
2023-03-02T07:50:25.210Z,4.80
2023-03-02T07:53:31.048Z,5.27
2023-03-02T07:56:37.473Z,5.40
2023-03-02T07:59:41.003Z,4.53
2023-03-02T08:02:44.624Z,5.68
2023-03-02T08:05:48.085Z,5.15
2023-03-02T08:08:55.322Z,5.20
2023-03-02T08:11:58.836Z,4.97
2023-03-02T08:15:05.273Z,5.72
2023-03-02T08:18:09.646Z,5.55
2023-03-02T08:21:34.200Z,4.50
2023-03-02T08:24:43.148Z,5.10
2023-03-02T08:27:49.000Z,4.60
2023-03-02T08:31:01.621Z,5.60
2023-03-02T08:34:04.832Z,5.72
2023-03-02T08:37:14.104Z,5.18
2023-03-02T08:40:17.712Z,4.93
2023-03-02T08:43:26.111Z,4.63
2023-03-02T08:46:31.002Z,4.63
2023-03-02T08:49:34.391Z,4.72
2023-03-02T08:52:37.762Z,4.35
2023-03-02T08:55:40.894Z,5.47
2023-03-02T08:58:44.644Z,3.87
2023-03-02T09:01:48.436Z,3.75
2023-03-02T09:04:51.982Z,4.53
2023-03-02T09:07:55.591Z,4.25
2023-03-02T09:11:00.866Z,3.83
2023-03-02T09:14:04.712Z,3.90
2023-03-02T09:17:08.282Z,4.47
2023-03-02T09:20:12.222Z,4.60
2023-03-02T09:23:16.031Z,4.50
2023-03-02T09:26:19.563Z,4.18
2023-03-02T09:29:26.394Z,4.97
2023-03-02T09:32:29.805Z,4.75
2023-03-02T09:35:40.210Z,4.30
2023-03-02T09:38:43.515Z,5.50
2023-03-02T09:42:07.654Z,5.13
2023-03-02T09:45:34.865Z,5.47
2023-03-02T09:49:28.673Z,4.45
2023-03-02T09:52:52.745Z,5.95
2023-03-02T09:56:02.712Z,4.47
2023-03-02T09:59:18.148Z,5.88
2023-03-02T10:02:48.060Z,4.40
2023-03-02T10:05:54.292Z,5.03
2023-03-02T10:08:57.779Z,4.95
2023-03-02T10:12:13.394Z,5.10
2023-03-02T10:15:30.034Z,5.60
2023-03-02T10:18:33.330Z,4.53
2023-03-02T10:22:13.576Z,5.40
2023-03-02T10:25:22.888Z,5.85
2023-03-02T10:28:33.063Z,5.50
2023-03-02T10:31:43.781Z,4.78
2023-03-02T10:34:50.239Z,5.23
2023-03-02T10:38:12.608Z,5.78
2023-03-02T10:41:23.511Z,4.75
2023-03-02T10:44:52.576Z,6.10
2023-03-02T10:48:11.437Z,5.30
2023-03-02T10:51:29.912Z,5.93
2023-03-02T10:54:34.917Z,6.00
2023-03-02T10:57:43.613Z,5.60
2023-03-02T11:00:58.514Z,5.68
2023-03-02T11:04:02.683Z,6.68
2023-03-02T11:07:32.257Z,5.70
2023-03-02T11:10:51.853Z,6.95
2023-03-02T11:13:57.067Z,6.85
2023-03-02T11:17:02.421Z,6.30
2023-03-02T11:20:16.351Z,6.35
2023-03-02T11:23:42.386Z,7.03
2023-03-02T11:26:51.229Z,6.18
2023-03-02T11:30:16.230Z,6.57
2023-03-02T11:33:30.187Z,5.43
2023-03-02T11:36:55.212Z,6.72
2023-03-02T11:40:05.729Z,5.83
2023-03-02T11:43:12.928Z,5.28
2023-03-02T11:46:27.289Z,6.75
2023-03-02T11:49:54.941Z,6.13
2023-03-02T11:53:18.306Z,6.93
2023-03-02T11:56:22.935Z,6.37
2023-03-02T11:59:28.930Z,6.13
2023-03-02T12:02:32.101Z,6.15
2023-03-02T12:05:38.091Z,6.28
2023-03-02T12:08:45.135Z,7.00
2023-03-02T12:11:56.073Z,5.47
2023-03-02T12:15:01.330Z,5.78
2023-03-02T12:18:23.816Z,6.60
2023-03-02T12:21:27.568Z,6.50
2023-03-02T12:24:33.514Z,6.90
2023-03-02T12:27:41.921Z,5.47
2023-03-02T12:30:56.896Z,5.68
2023-03-02T12:34:00.810Z,7.15
2023-03-02T12:37:38.224Z,5.35
2023-03-02T12:41:00.450Z,6.17
2023-03-02T12:44:12.636Z,5.70
2023-03-02T12:47:27.992Z,5.38
2023-03-02T12:50:37.934Z,6.85
2023-03-02T12:53:41.764Z,5.82
2023-03-02T12:56:45.967Z,4.87
2023-03-02T13:00:01.446Z,5.73
2023-03-02T13:03:10.083Z,5.60
2023-03-02T13:06:18.354Z,5.13
2023-03-02T13:09:23.978Z,5.50
2023-03-02T13:12:29.402Z,5.10
2023-03-02T13:15:54.640Z,6.17
2023-03-02T13:19:00.482Z,4.65
2023-03-02T13:25:28.301Z,5.05
2023-03-02T13:28:36.978Z,5.65
2023-03-02T13:31:40.958Z,4.77
2023-03-02T13:34:50.278Z,4.45
2023-03-02T13:38:14.154Z,4.15
2023-03-02T13:41:59.787Z,5.25
2023-03-02T13:45:33.046Z,4.70
2023-03-02T13:48:36.447Z,4.50
2023-03-02T13:51:46.288Z,5.30
2023-03-02T13:54:51.724Z,4.72
2023-03-02T13:57:56.414Z,5.80
2023-03-02T14:01:07.926Z,4.80
2023-03-02T14:04:18.238Z,5.43
2023-03-02T14:07:21.726Z,5.20
2023-03-02T14:10:26.843Z,5.40
2023-03-02T14:13:45.595Z,5.97
2023-03-02T14:16:48.789Z,5.40
2023-03-02T14:19:53.062Z,5.60
2023-03-02T14:22:56.157Z,4.95
2023-03-02T14:25:59.499Z,5.70
2023-03-02T14:29:21.297Z,5.38
2023-03-02T14:32:24.781Z,5.33
2023-03-02T14:35:27.911Z,6.17
2023-03-02T14:38:31.334Z,6.40
2023-03-02T14:41:52.495Z,6.43
2023-03-02T14:44:56.341Z,6.25
2023-03-02T14:48:00.608Z,6.47
2023-03-02T14:51:04.248Z,5.03
2023-03-02T14:54:12.682Z,5.80
2023-03-02T14:57:22.252Z,6.18
2023-03-02T15:00:26.157Z,5.72
2023-03-02T15:03:29.654Z,7.05
2023-03-02T15:06:43.608Z,6.87
2023-03-02T15:09:47.271Z,6.40
2023-03-02T15:12:51.128Z,6.40
2023-03-02T15:15:54.453Z,6.63
2023-03-02T15:18:58.927Z,6.55
2023-03-02T15:22:02.417Z,6.60
2023-03-02T15:25:06.237Z,6.93
2023-03-02T15:28:09.826Z,6.85
2023-03-02T15:31:16.036Z,7.15
2023-03-02T15:34:19.396Z,6.53
2023-03-02T15:37:22.647Z,6.57
2023-03-02T15:40:26.588Z,7.32
2023-03-02T15:43:29.552Z,6.82
2023-03-02T15:46:32.961Z,6.07
2023-03-02T15:49:36.239Z,6.90
2023-03-02T15:52:39.255Z,7.10
2023-03-02T15:55:42.432Z,7.03
2023-03-02T15:58:47.847Z,11.45
2023-03-02T16:01:51.918Z,11.05
2023-03-02T16:04:55.172Z,8.20
2023-03-02T16:07:58.205Z,6.30
2023-03-02T16:11:04.391Z,7.57
2023-03-02T16:14:07.546Z,6.38
2023-03-02T16:17:10.347Z,6.00
2023-03-02T16:20:13.439Z,7.53
2023-03-02T16:23:16.366Z,7.00
2023-03-02T16:26:21.016Z,6.20
2023-03-02T16:29:24.434Z,8.35
2023-03-02T16:32:28.388Z,8.63
2023-03-02T16:35:33.246Z,8.43
2023-03-02T16:38:37.367Z,8.87
2023-03-02T16:41:42.971Z,9.27
2023-03-02T16:44:46.440Z,9.38
2023-03-02T16:47:50.017Z,7.93
2023-03-02T16:50:58.207Z,10.20
2023-03-02T16:54:02.406Z,8.30
2023-03-02T16:57:05.651Z,8.65
2023-03-02T17:00:11.792Z,9.40
2023-03-02T17:03:15.090Z,7.53
2023-03-02T17:06:22.327Z,7.43
2023-03-02T17:09:25.450Z,7.30
2023-03-02T17:12:29.037Z,6.85
2023-03-02T17:15:32.845Z,5.55
2023-03-02T17:18:35.902Z,6.15
2023-03-02T17:21:39.189Z,6.00
2023-03-02T17:24:42.379Z,7.00
2023-03-02T17:27:45.667Z,7.20
2023-03-02T17:30:49.909Z,7.43
2023-03-02T17:33:53.352Z,9.80
2023-03-02T17:36:56.550Z,9.97
2023-03-02T17:39:59.918Z,11.27
2023-03-02T17:43:03.186Z,11.50
2023-03-02T17:46:20.520Z,9.48
2023-03-02T17:49:24.129Z,10.80
2023-03-02T17:52:27.631Z,11.13
2023-03-02T17:55:30.993Z,10.47
2023-03-02T17:58:44.349Z,11.68
2023-03-02T18:01:48.344Z,9.32
2023-03-02T18:04:51.494Z,8.35
2023-03-02T18:07:54.887Z,9.23
2023-03-02T18:11:02.725Z,9.00
2023-03-02T18:14:06.097Z,8.40
2023-03-02T18:17:10.337Z,10.07
2023-03-02T18:20:16.295Z,8.18
2023-03-02T18:23:19.913Z,8.37
2023-03-02T18:26:23.430Z,9.13
2023-03-02T18:29:26.869Z,9.45
2023-03-02T18:32:29.864Z,10.00
2023-03-02T18:35:33.831Z,10.10
2023-03-02T18:38:37.998Z,11.17
2023-03-02T18:41:41.628Z,11.73
2023-03-02T18:44:44.771Z,11.75
2023-03-02T18:47:48.002Z,10.85
2023-03-02T18:50:51.580Z,12.02
2023-03-02T18:53:56.366Z,11.40
2023-03-02T18:57:01.758Z,13.07
2023-03-02T19:00:08.386Z,13.27
2023-03-02T19:03:15.140Z,11.75
2023-03-02T19:06:18.494Z,12.73
2023-03-02T19:09:23.687Z,12.57
2023-03-02T19:12:27.404Z,14.43
2023-03-02T19:15:33.230Z,14.90
2023-03-02T19:18:38.003Z,14.43
2023-03-02T19:21:41.384Z,15.52
2023-03-02T19:24:45.931Z,14.40
2023-03-02T19:27:49.400Z,14.50
2023-03-02T19:30:52.844Z,13.48
2023-03-02T19:33:56.798Z,14.45
2023-03-02T19:37:00.521Z,13.43
2023-03-02T19:40:04.158Z,13.67
2023-03-02T19:43:07.480Z,12.13
2023-03-02T19:46:14.093Z,13.80
2023-03-02T19:49:17.224Z,13.05
2023-03-02T19:52:20.070Z,14.23
2023-03-02T19:55:24.414Z,12.53
2023-03-02T19:58:28.586Z,11.17
2023-03-02T20:01:32.166Z,10.57
2023-03-02T20:04:35.679Z,10.27
2023-03-02T20:07:41.563Z,9.32
2023-03-02T20:10:46.694Z,10.10
2023-03-02T20:13:50.617Z,11.27
2023-03-02T20:16:53.784Z,9.93
2023-03-02T20:19:57.392Z,11.27
2023-03-02T20:23:00.896Z,10.10
2023-03-02T20:26:05.049Z,11.10
2023-03-02T20:29:09.138Z,8.57
2023-03-02T20:32:13.630Z,10.32
2023-03-02T20:35:16.754Z,9.38
2023-03-02T20:38:29.158Z,9.07
2023-03-02T20:41:33.246Z,10.53
2023-03-02T20:44:36.584Z,9.57
2023-03-02T20:47:40.723Z,10.38
2023-03-02T20:50:44.320Z,8.30
2023-03-02T20:53:47.866Z,9.60
2023-03-02T20:56:51.850Z,8.63
2023-03-02T20:59:54.935Z,9.33
2023-03-02T21:02:58.314Z,9.90
2023-03-02T21:06:01.451Z,8.55
2023-03-02T21:09:08.085Z,9.02
2023-03-02T21:12:11.959Z,10.13
2023-03-02T21:15:16.913Z,9.23
2023-03-02T21:18:20.076Z,9.10
2023-03-02T21:21:39.448Z,10.18
2023-03-02T21:24:44.444Z,10.13
2023-03-02T21:27:48.335Z,9.47
2023-03-02T21:30:52.172Z,9.00
2023-03-02T21:33:55.328Z,8.85
2023-03-02T21:36:59.844Z,9.23
2023-03-02T21:40:03.162Z,8.02
2023-03-02T21:43:07.694Z,10.27
2023-03-02T21:46:17.004Z,8.10
2023-03-02T21:49:22.456Z,9.77
2023-03-02T21:52:27.379Z,8.40
2023-03-02T21:55:31.019Z,10.50
2023-03-02T21:58:34.350Z,9.33
2023-03-02T22:01:37.656Z,9.57
2023-03-02T22:04:42.112Z,10.13
2023-03-02T22:07:45.445Z,10.90
2023-03-02T22:10:51.608Z,8.95
2023-03-02T22:13:57.809Z,10.13
2023-03-02T22:17:01.185Z,9.23
2023-03-02T22:20:16.731Z,8.93
2023-03-02T22:23:23.198Z,9.30
2023-03-02T22:26:26.975Z,8.93
2023-03-02T22:29:33.754Z,9.20
2023-03-02T22:32:38.726Z,9.07
2023-03-02T22:35:42.759Z,8.60
2023-03-02T22:38:48.734Z,8.90
2023-03-02T22:41:58.725Z,8.20
2023-03-02T22:45:17.089Z,8.10
2023-03-02T22:48:22.827Z,9.37
2023-03-02T22:51:33.922Z,9.52
2023-03-02T22:54:37.879Z,9.52
2023-03-02T22:57:43.220Z,10.82
2023-03-02T23:00:49.214Z,11.73
2023-03-02T23:04:03.283Z,8.90
2023-03-02T23:07:24.462Z,8.90
2023-03-02T23:10:28.001Z,10.57
2023-03-02T23:13:39.901Z,10.40
2023-03-02T23:16:42.859Z,10.80
2023-03-02T23:19:47.233Z,10.47
2023-03-02T23:22:50.656Z,9.80
2023-03-02T23:25:53.988Z,9.80
2023-03-02T23:28:58.188Z,9.57
2023-03-02T23:32:02.380Z,11.60
2023-03-02T23:35:05.901Z,10.93
2023-03-02T23:38:09.484Z,10.13
2023-03-02T23:41:12.917Z,10.23
2023-03-02T23:44:16.733Z,10.90
2023-03-02T23:47:19.980Z,10.73
2023-03-02T23:50:23.314Z,12.37
2023-03-02T23:53:26.796Z,9.73
2023-03-02T23:56:29.606Z,12.20
2023-03-02T23:59:33.048Z,12.55
